sensor_id;sensor_type;location;lat;lon;timestamp;pressure;altitude;pressure_sealevel;temperature;humidity
64521;BME280;50896;46.714;17.322;2022-11-15T08:07:07;100655.81;;;6.21;100.00
64521;BME280;50896;46.714;17.322;2022-11-15T08:09:53;100657.97;;;6.27;100.00
64521;BME280;50896;46.714;17.322;2022-11-15T08:12:39;100643.00;;;6.37;100.00
64521;BME280;50896;46.714;17.322;2022-11-15T08:15:25;100639.03;;;6.43;100.00
64521;BME280;50896;46.714;17.322;2022-11-15T08:18:14;100639.47;;;6.48;100.00
64521;BME280;50896;46.714;17.322;2022-11-15T08:21:00;100634.38;;;6.56;100.00
64521;BME280;50896;46.714;17.322;2022-11-15T08:23:46;100638.03;;;6.65;100.00
64521;BME280;50896;46.714;17.322;2022-11-15T08:26:34;100653.34;;;6.71;100.00
64521;BME280;50896;46.714;17.322;2022-11-15T08:29:20;100654.53;;;6.78;100.00
64521;BME280;50896;46.714;17.322;2022-11-15T08:32:05;100657.03;;;6.80;100.00
64521;BME280;50896;46.714;17.322;2022-11-15T08:34:50;100653.53;;;6.79;100.00
64521;BME280;50896;46.714;17.322;2022-11-15T08:37:36;100657.44;;;6.85;100.00
64521;BME280;50896;46.714;17.322;2022-11-15T08:40:21;100649.28;;;6.88;100.00
64521;BME280;50896;46.714;17.322;2022-11-15T08:43:08;100647.19;;;6.92;100.00
64521;BME280;50896;46.714;17.322;2022-11-15T08:45:56;100649.34;;;7.08;100.00
64521;BME280;50896;46.714;17.322;2022-11-15T08:48:42;100645.84;;;7.07;100.00
64521;BME280;50896;46.714;17.322;2022-11-15T08:51:27;100645.63;;;7.10;100.00
64521;BME280;50896;46.714;17.322;2022-11-15T08:54:12;100643.81;;;7.21;100.00
64521;BME280;50896;46.714;17.322;2022-11-15T08:56:58;100626.72;;;7.25;100.00
64521;BME280;50896;46.714;17.322;2022-11-15T08:59:43;100634.66;;;7.25;100.00
64521;BME280;50896;46.714;17.322;2022-11-15T09:02:28;100634.50;;;7.26;100.00
64521;BME280;50896;46.714;17.322;2022-11-15T09:05:14;100631.72;;;7.28;100.00
64521;BME280;50896;46.714;17.322;2022-11-15T09:08:00;100639.81;;;7.36;100.00
64521;BME280;50896;46.714;17.322;2022-11-15T09:10:57;100637.88;;;7.38;100.00
64521;BME280;50896;46.714;17.322;2022-11-15T09:13:43;100632.84;;;7.35;100.00
64521;BME280;50896;46.714;17.322;2022-11-15T09:16:30;100635.91;;;7.30;100.00
64521;BME280;50896;46.714;17.322;2022-11-15T09:19:15;100636.34;;;7.26;100.00
64521;BME280;50896;46.714;17.322;2022-11-15T09:22:01;100635.63;;;7.24;100.00
64521;BME280;50896;46.714;17.322;2022-11-15T09:24:46;100634.94;;;7.22;100.00
64521;BME280;50896;46.714;17.322;2022-11-15T09:27:31;100633.94;;;7.23;100.00
64521;BME280;50896;46.714;17.322;2022-11-15T09:30:17;100629.38;;;7.25;100.00
64521;BME280;50896;46.714;17.322;2022-11-15T09:33:10;100629.19;;;7.16;100.00
64521;BME280;50896;46.714;17.322;2022-11-15T09:36:00;100625.59;;;7.17;100.00
64521;BME280;50896;46.714;17.322;2022-11-15T09:38:47;100624.59;;;7.18;100.00
64521;BME280;50896;46.714;17.322;2022-11-15T09:45:21;100619.44;;;7.17;100.00
64521;BME280;50896;46.714;17.322;2022-11-15T09:50:55;100611.66;;;7.15;100.00
64521;BME280;50896;46.714;17.322;2022-11-15T09:53:41;100609.00;;;7.15;100.00
64521;BME280;50896;46.714;17.322;2022-11-15T09:56:31;100608.72;;;7.18;100.00
64521;BME280;50896;46.714;17.322;2022-11-15T10:01:54;100599.16;;;7.17;100.00
64521;BME280;50896;46.714;17.322;2022-11-15T10:04:23;100602.91;;;7.15;100.00
64521;BME280;50896;46.714;17.322;2022-11-15T10:12:18;100597.59;;;7.15;100.00
64521;BME280;50896;46.714;17.322;2022-11-15T10:14:49;100597.75;;;7.13;100.00
64521;BME280;50896;46.714;17.322;2022-11-15T10:22:47;100586.44;;;7.11;100.00
64521;BME280;50896;46.714;17.322;2022-11-15T10:28:09;100579.09;;;7.15;100.00
64521;BME280;50896;46.714;17.322;2022-11-15T10:30:38;100580.50;;;7.19;100.00
64521;BME280;50896;46.714;17.322;2022-11-15T10:35:37;100570.22;;;7.26;100.00
64521;BME280;50896;46.714;17.322;2022-11-15T10:38:09;100560.16;;;7.19;100.00
64521;BME280;50896;46.714;17.322;2022-11-15T10:40:37;100560.16;;;7.19;100.00
64521;BME280;50896;46.714;17.322;2022-11-15T10:43:13;100556.16;;;7.25;100.00
64521;BME280;50896;46.714;17.322;2022-11-15T10:45:41;100551.84;;;7.24;100.00
64521;BME280;50896;46.714;17.322;2022-11-15T10:50:43;100549.75;;;7.28;100.00
64521;BME280;50896;46.714;17.322;2022-11-15T10:53:49;100531.81;;;7.31;100.00
64521;BME280;50896;46.714;17.322;2022-11-15T10:56:12;100532.50;;;7.33;100.00
64521;BME280;50896;46.714;17.322;2022-11-15T10:58:44;100517.19;;;7.37;100.00
64521;BME280;50896;46.714;17.322;2022-11-15T11:01:27;100516.47;;;7.35;100.00
64521;BME280;50896;46.714;17.322;2022-11-15T11:04:01;100511.91;;;7.37;100.00
64521;BME280;50896;46.714;17.322;2022-11-15T11:06:29;100509.78;;;7.41;100.00
64521;BME280;50896;46.714;17.322;2022-11-15T11:09:05;100502.44;;;7.44;100.00
64521;BME280;50896;46.714;17.322;2022-11-15T11:11:48;100497.00;;;7.46;100.00
64521;BME280;50896;46.714;17.322;2022-11-15T11:14:24;100485.31;;;7.48;100.00
64521;BME280;50896;46.714;17.322;2022-11-15T11:17:04;100481.94;;;7.46;100.00
64521;BME280;50896;46.714;17.322;2022-11-15T11:23:01;100474.28;;;7.43;100.00
64521;BME280;50896;46.714;17.322;2022-11-15T11:33:44;100455.50;;;7.46;100.00
64521;BME280;50896;46.714;17.322;2022-11-15T11:49:51;100453.97;;;7.63;100.00
64521;BME280;50896;46.714;17.322;2022-11-15T11:52:38;100445.03;;;7.64;100.00
64521;BME280;50896;46.714;17.322;2022-11-15T11:55:21;100437.38;;;7.61;100.00
64521;BME280;50896;46.714;17.322;2022-11-15T11:58:11;100432.91;;;7.62;100.00
64521;BME280;50896;46.714;17.322;2022-11-15T12:01:15;100425.94;;;7.70;100.00
64521;BME280;50896;46.714;17.322;2022-11-15T12:09:26;100420.03;;;7.86;100.00
64521;BME280;50896;46.714;17.322;2022-11-15T12:14:55;100410.72;;;7.82;100.00
64521;BME280;50896;46.714;17.322;2022-11-15T12:17:25;100404.72;;;7.90;100.00
64521;BME280;50896;46.714;17.322;2022-11-15T12:19:56;100398.31;;;7.93;100.00
64521;BME280;50896;46.714;17.322;2022-11-15T12:25:01;100390.63;;;7.90;100.00
64521;BME280;50896;46.714;17.322;2022-11-15T12:27:38;100398.81;;;7.96;100.00
64521;BME280;50896;46.714;17.322;2022-11-15T12:30:16;100387.53;;;8.04;100.00
64521;BME280;50896;46.714;17.322;2022-11-15T12:32:55;100372.00;;;8.09;100.00
64521;BME280;50896;46.714;17.322;2022-11-15T12:35:27;100378.53;;;8.15;100.00
64521;BME280;50896;46.714;17.322;2022-11-15T12:37:56;100378.81;;;8.12;100.00
64521;BME280;50896;46.714;17.322;2022-11-15T12:40:32;100369.19;;;8.20;100.00
64521;BME280;50896;46.714;17.322;2022-11-15T12:45:43;100373.31;;;8.23;100.00
64521;BME280;50896;46.714;17.322;2022-11-15T12:56:09;100356.22;;;8.17;100.00
64521;BME280;50896;46.714;17.322;2022-11-15T13:06:57;100357.28;;;8.07;100.00
64521;BME280;50896;46.714;17.322;2022-11-15T13:11:56;100341.03;;;7.92;100.00
64521;BME280;50896;46.714;17.322;2022-11-15T13:19:49;100336.66;;;8.00;100.00
64521;BME280;50896;46.714;17.322;2022-11-15T13:22:18;100341.56;;;7.95;100.00
64521;BME280;50896;46.714;17.322;2022-11-15T13:25:15;100333.56;;;8.05;100.00
64521;BME280;50896;46.714;17.322;2022-11-15T13:27:42;100330.84;;;7.97;100.00
64521;BME280;50896;46.714;17.322;2022-11-15T13:30:24;100328.72;;;8.00;100.00
64521;BME280;50896;46.714;17.322;2022-11-15T13:32:51;100332.06;;;8.02;100.00
64521;BME280;50896;46.714;17.322;2022-11-15T13:35:23;100326.94;;;8.01;100.00
64521;BME280;50896;46.714;17.322;2022-11-15T13:37:51;100329.41;;;8.02;100.00
64521;BME280;50896;46.714;17.322;2022-11-15T13:40:29;100327.28;;;8.06;100.00
64521;BME280;50896;46.714;17.322;2022-11-15T13:43:35;100328.41;;;8.03;100.00
64521;BME280;50896;46.714;17.322;2022-11-15T13:46:20;100321.06;;;7.97;100.00
64521;BME280;50896;46.714;17.322;2022-11-15T13:48:57;100332.78;;;7.95;100.00
64521;BME280;50896;46.714;17.322;2022-11-15T13:56:36;100317.97;;;8.02;100.00
64521;BME280;50896;46.714;17.322;2022-11-15T13:59:17;100321.31;;;8.04;100.00
64521;BME280;50896;46.714;17.322;2022-11-15T14:01:45;100307.22;;;8.03;100.00
64521;BME280;50896;46.714;17.322;2022-11-15T14:04:13;100309.66;;;7.97;100.00
64521;BME280;50896;46.714;17.322;2022-11-15T14:06:47;100306.31;;;7.95;100.00
64521;BME280;50896;46.714;17.322;2022-11-15T14:09:38;100306.63;;;7.92;100.00
64521;BME280;50896;46.714;17.322;2022-11-15T14:12:33;100299.06;;;8.15;100.00
64521;BME280;50896;46.714;17.322;2022-11-15T14:15:19;100309.31;;;8.10;100.00
64521;BME280;50896;46.714;17.322;2022-11-15T14:17:51;100299.38;;;8.12;100.00
64521;BME280;50896;46.714;17.322;2022-11-15T14:20:36;100292.28;;;8.12;100.00
64521;BME280;50896;46.714;17.322;2022-11-15T14:25:54;100286.16;;;8.12;100.00
64521;BME280;50896;46.714;17.322;2022-11-15T14:30:49;100277.91;;;8.15;100.00
64521;BME280;50896;46.714;17.322;2022-11-15T14:35:51;100280.13;;;8.19;100.00
64521;BME280;50896;46.714;17.322;2022-11-15T14:38:18;100273.97;;;8.19;100.00
64521;BME280;50896;46.714;17.322;2022-11-15T14:40:45;100269.28;;;8.13;100.00
64521;BME280;50896;46.714;17.322;2022-11-15T14:43:12;100262.47;;;8.10;100.00
64521;BME280;50896;46.714;17.322;2022-11-15T14:45:40;100267.75;;;8.10;100.00
64521;BME280;50896;46.714;17.322;2022-11-15T14:48:07;100269.03;;;8.06;100.00
64521;BME280;50896;46.714;17.322;2022-11-15T14:50:34;100266.34;;;8.16;100.00
64521;BME280;50896;46.714;17.322;2022-11-15T14:53:01;100259.81;;;8.10;100.00
64521;BME280;50896;46.714;17.322;2022-11-15T14:55:35;100268.88;;;8.08;100.00
64521;BME280;50896;46.714;17.322;2022-11-15T14:58:03;100258.84;;;8.11;100.00
64521;BME280;50896;46.714;17.322;2022-11-15T15:00:31;100262.06;;;8.05;100.00
64521;BME280;50896;46.714;17.322;2022-11-15T15:03:01;100260.66;;;8.11;100.00
64521;BME280;50896;46.714;17.322;2022-11-15T15:08:03;100255.22;;;8.12;100.00
64521;BME280;50896;46.714;17.322;2022-11-15T15:10:36;100244.16;;;8.17;100.00
64521;BME280;50896;46.714;17.322;2022-11-15T15:13:28;100249.22;;;8.10;100.00
64521;BME280;50896;46.714;17.322;2022-11-15T15:15:56;100241.75;;;8.06;100.00
64521;BME280;50896;46.714;17.322;2022-11-15T15:18:23;100242.56;;;8.06;100.00
64521;BME280;50896;46.714;17.322;2022-11-15T15:20:57;100231.38;;;8.12;100.00
64521;BME280;50896;46.714;17.322;2022-11-15T15:23:26;100230.38;;;8.13;100.00
64521;BME280;50896;46.714;17.322;2022-11-15T15:25:55;100222.59;;;8.12;100.00
64521;BME280;50896;46.714;17.322;2022-11-15T15:28:22;100226.91;;;8.13;100.00
64521;BME280;50896;46.714;17.322;2022-11-15T15:30:49;100223.88;;;8.08;100.00
64521;BME280;50896;46.714;17.322;2022-11-15T15:33:16;100224.56;;;8.10;100.00
64521;BME280;50896;46.714;17.322;2022-11-15T15:35:42;100214.22;;;7.98;100.00
64521;BME280;50896;46.714;17.322;2022-11-15T15:38:12;100215.03;;;7.99;100.00
64521;BME280;50896;46.714;17.322;2022-11-15T15:40:39;100206.13;;;8.00;100.00
64521;BME280;50896;46.714;17.322;2022-11-15T15:43:06;100213.44;;;8.06;100.00
64521;BME280;50896;46.714;17.322;2022-11-15T15:45:40;100213.59;;;8.04;100.00
64521;BME280;50896;46.714;17.322;2022-11-15T15:48:12;100203.69;;;8.07;100.00
64521;BME280;50896;46.714;17.322;2022-11-15T15:50:39;100200.28;;;8.14;100.00
64521;BME280;50896;46.714;17.322;2022-11-15T15:53:06;100203.53;;;8.08;100.00
64521;BME280;50896;46.714;17.322;2022-11-15T15:55:34;100209.19;;;8.13;100.00
64521;BME280;50896;46.714;17.322;2022-11-15T15:58:01;100205.19;;;8.09;100.00
64521;BME280;50896;46.714;17.322;2022-11-15T16:00:28;100193.63;;;8.10;100.00
64521;BME280;50896;46.714;17.322;2022-11-15T16:02:55;100194.47;;;8.11;100.00
64521;BME280;50896;46.714;17.322;2022-11-15T16:05:22;100188.88;;;8.14;100.00
64521;BME280;50896;46.714;17.322;2022-11-15T16:07:48;100199.53;;;8.04;100.00
64521;BME280;50896;46.714;17.322;2022-11-15T16:12:44;100194.47;;;8.11;100.00
64521;BME280;50896;46.714;17.322;2022-11-15T16:15:11;100187.59;;;8.00;100.00
64521;BME280;50896;46.714;17.322;2022-11-15T16:17:46;100185.25;;;7.97;100.00
64521;BME280;50896;46.714;17.322;2022-11-15T16:23:05;100186.69;;;7.91;100.00
64521;BME280;50896;46.714;17.322;2022-11-15T16:25:41;100182.22;;;7.92;100.00
64521;BME280;50896;46.714;17.322;2022-11-15T16:31:03;100176.38;;;8.06;100.00
64521;BME280;50896;46.714;17.322;2022-11-15T16:33:30;100174.50;;;7.98;100.00
64521;BME280;50896;46.714;17.322;2022-11-15T16:35:58;100177.66;;;8.02;100.00
64521;BME280;50896;46.714;17.322;2022-11-15T16:38:27;100181.66;;;8.06;100.00
64521;BME280;50896;46.714;17.322;2022-11-15T16:40:54;100170.84;;;7.99;100.00
64521;BME280;50896;46.714;17.322;2022-11-15T16:43:21;100174.56;;;8.07;100.00
64521;BME280;50896;46.714;17.322;2022-11-15T16:45:49;100172.28;;;7.94;100.00
64521;BME280;50896;46.714;17.322;2022-11-15T16:48:22;100169.56;;;7.85;100.00
64521;BME280;50896;46.714;17.322;2022-11-15T16:50:54;100165.41;;;7.83;100.00
64521;BME280;50896;46.714;17.322;2022-11-15T16:53:22;100163.13;;;7.88;100.00
64521;BME280;50896;46.714;17.322;2022-11-15T16:55:49;100153.09;;;7.92;100.00
64521;BME280;50896;46.714;17.322;2022-11-15T16:58:15;100158.38;;;7.92;100.00
64521;BME280;50896;46.714;17.322;2022-11-15T17:00:42;100156.19;;;7.87;100.00
64521;BME280;50896;46.714;17.322;2022-11-15T17:03:09;100149.97;;;7.78;100.00
64521;BME280;50896;46.714;17.322;2022-11-15T17:05:36;100152.31;;;7.81;100.00
64521;BME280;50896;46.714;17.322;2022-11-15T17:08:03;100140.66;;;7.74;100.00
64521;BME280;50896;46.714;17.322;2022-11-15T17:10:29;100137.34;;;7.72;100.00
64521;BME280;50896;46.714;17.322;2022-11-15T17:12:57;100140.91;;;7.81;100.00
64521;BME280;50896;46.714;17.322;2022-11-15T17:15:23;100140.41;;;7.77;100.00
64521;BME280;50896;46.714;17.322;2022-11-15T17:17:52;100122.22;;;7.82;100.00
64521;BME280;50896;46.714;17.322;2022-11-15T17:20:21;100125.09;;;7.89;100.00
64521;BME280;50896;46.714;17.322;2022-11-15T17:22:48;100126.53;;;7.83;100.00
64521;BME280;50896;46.714;17.322;2022-11-15T17:25:15;100121.00;;;7.77;100.00
64521;BME280;50896;46.714;17.322;2022-11-15T17:27:42;100123.50;;;7.78;100.00
64521;BME280;50896;46.714;17.322;2022-11-15T17:30:11;100121.91;;;7.85;100.00
64521;BME280;50896;46.714;17.322;2022-11-15T17:32:38;100136.59;;;7.80;100.00
64521;BME280;50896;46.714;17.322;2022-11-15T17:35:05;100132.06;;;7.72;100.00
64521;BME280;50896;46.714;17.322;2022-11-15T17:37:39;100115.81;;;7.85;100.00
64521;BME280;50896;46.714;17.322;2022-11-15T17:40:06;100120.56;;;7.81;100.00
64521;BME280;50896;46.714;17.322;2022-11-15T17:42:33;100104.41;;;7.84;100.00
64521;BME280;50896;46.714;17.322;2022-11-15T17:44:59;100109.38;;;7.87;100.00
64521;BME280;50896;46.714;17.322;2022-11-15T17:47:34;100110.34;;;7.86;100.00
64521;BME280;50896;46.714;17.322;2022-11-15T17:50:01;100104.00;;;7.79;100.00
64521;BME280;50896;46.714;17.322;2022-11-15T17:52:28;100106.81;;;7.78;100.00
64521;BME280;50896;46.714;17.322;2022-11-15T17:54:55;100109.06;;;7.73;100.00
64521;BME280;50896;46.714;17.322;2022-11-15T17:57:21;100108.25;;;7.72;100.00
64521;BME280;50896;46.714;17.322;2022-11-15T17:59:48;100098.31;;;7.74;100.00
64521;BME280;50896;46.714;17.322;2022-11-15T18:02:15;100104.09;;;7.69;100.00
64521;BME280;50896;46.714;17.322;2022-11-15T18:04:41;100088.59;;;7.75;100.00
64521;BME280;50896;46.714;17.322;2022-11-15T18:07:08;100096.97;;;7.70;100.00
64521;BME280;50896;46.714;17.322;2022-11-15T18:09:37;100095.03;;;7.72;100.00
64521;BME280;50896;46.714;17.322;2022-11-15T18:12:08;100092.53;;;7.70;100.00
64521;BME280;50896;46.714;17.322;2022-11-15T18:14:35;100088.06;;;7.71;100.00
64521;BME280;50896;46.714;17.322;2022-11-15T18:17:02;100082.09;;;7.69;100.00
64521;BME280;50896;46.714;17.322;2022-11-15T18:19:29;100092.38;;;7.72;100.00
64521;BME280;50896;46.714;17.322;2022-11-15T18:21:55;100090.03;;;7.69;100.00
64521;BME280;50896;46.714;17.322;2022-11-15T18:24:24;100089.19;;;7.68;100.00
64521;BME280;50896;46.714;17.322;2022-11-15T18:26:51;100095.03;;;7.72;100.00
64521;BME280;50896;46.714;17.322;2022-11-15T18:29:18;100089.03;;;7.70;100.00
64521;BME280;50896;46.714;17.322;2022-11-15T18:31:45;100088.06;;;7.71;100.00
64521;BME280;50896;46.714;17.322;2022-11-15T18:34:15;100082.75;;;7.71;100.00
64521;BME280;50896;46.714;17.322;2022-11-15T18:36:42;100082.44;;;7.74;100.00
64521;BME280;50896;46.714;17.322;2022-11-15T18:39:09;100074.81;;;7.71;100.00
64521;BME280;50896;46.714;17.322;2022-11-15T18:41:43;100076.09;;;7.67;100.00
64521;BME280;50896;46.714;17.322;2022-11-15T18:44:10;100069.84;;;7.68;100.00
64521;BME280;50896;46.714;17.322;2022-11-15T18:46:37;100074.31;;;7.67;100.00
64521;BME280;50896;46.714;17.322;2022-11-15T18:49:05;100065.91;;;7.72;100.00
64521;BME280;50896;46.714;17.322;2022-11-15T18:51:35;100074.66;;;7.73;100.00
64521;BME280;50896;46.714;17.322;2022-11-15T18:54:12;100067.84;;;7.70;100.00
64521;BME280;50896;46.714;17.322;2022-11-15T18:56:39;100070.34;;;7.72;100.00
64521;BME280;50896;46.714;17.322;2022-11-15T18:59:06;100072.03;;;7.73;100.00
64521;BME280;50896;46.714;17.322;2022-11-15T19:01:39;100079.13;;;7.72;100.00
64521;BME280;50896;46.714;17.322;2022-11-15T19:04:09;100066.06;;;7.70;100.00
64521;BME280;50896;46.714;17.322;2022-11-15T19:06:38;100067.59;;;7.73;100.00
64521;BME280;50896;46.714;17.322;2022-11-15T19:09:06;100066.72;;;7.73;100.00
64521;BME280;50896;46.714;17.322;2022-11-15T19:11:35;100064.25;;;7.71;100.00
64521;BME280;50896;46.714;17.322;2022-11-15T19:14:05;100057.28;;;7.70;100.00
64521;BME280;50896;46.714;17.322;2022-11-15T19:16:35;100046.69;;;7.70;100.00
64521;BME280;50896;46.714;17.322;2022-11-15T19:19:03;100045.72;;;7.71;100.00
64521;BME280;50896;46.714;17.322;2022-11-15T19:21:30;100046.03;;;7.68;100.00
64521;BME280;50896;46.714;17.322;2022-11-15T19:23:57;100042.09;;;7.72;100.00
64521;BME280;50896;46.714;17.322;2022-11-15T19:26:25;100043.88;;;7.72;100.00
64521;BME280;50896;46.714;17.322;2022-11-15T19:28:58;100041.78;;;7.75;100.00
64521;BME280;50896;46.714;17.322;2022-11-15T19:31:27;100036.41;;;7.67;100.00
64521;BME280;50896;46.714;17.322;2022-11-15T19:33:56;100037.13;;;7.69;100.00
64521;BME280;50896;46.714;17.322;2022-11-15T19:36:28;100027.19;;;7.71;100.00
64521;BME280;50896;46.714;17.322;2022-11-15T19:39:00;100033.31;;;7.72;100.00
64521;BME280;50896;46.714;17.322;2022-11-15T19:41:30;100034.31;;;7.70;100.00
64521;BME280;50896;46.714;17.322;2022-11-15T19:43:57;100033.47;;;7.70;100.00
64521;BME280;50896;46.714;17.322;2022-11-15T19:46:25;100027.34;;;7.69;100.00
64521;BME280;50896;46.714;17.322;2022-11-15T19:48:53;100026.22;;;7.72;100.00
64521;BME280;50896;46.714;17.322;2022-11-15T19:51:23;100029.19;;;7.69;100.00
64521;BME280;50896;46.714;17.322;2022-11-15T19:53:55;100024.38;;;7.73;100.00
64521;BME280;50896;46.714;17.322;2022-11-15T19:56:22;100034.16;;;7.72;100.00
64521;BME280;50896;46.714;17.322;2022-11-15T19:58:51;100026.06;;;7.74;100.00
64521;BME280;50896;46.714;17.322;2022-11-15T20:01:22;100027.72;;;7.75;100.00
64521;BME280;50896;46.714;17.322;2022-11-15T20:03:51;100019.78;;;7.75;100.00
64521;BME280;50896;46.714;17.322;2022-11-15T20:06:28;100012.97;;;7.72;100.00
64521;BME280;50896;46.714;17.322;2022-11-15T20:08:56;100017.59;;;7.70;100.00
64521;BME280;50896;46.714;17.322;2022-11-15T20:11:23;100016.44;;;7.73;100.00
64521;BME280;50896;46.714;17.322;2022-11-15T20:13:50;100008.50;;;7.73;100.00
64521;BME280;50896;46.714;17.322;2022-11-15T20:16:19;100008.50;;;7.73;100.00
64521;BME280;50896;46.714;17.322;2022-11-15T20:18:48;100004.72;;;7.75;100.00
64521;BME280;50896;46.714;17.322;2022-11-15T20:21:15;100000.41;;;7.74;100.00
64521;BME280;50896;46.714;17.322;2022-11-15T20:23:42;100004.72;;;7.75;100.00
64521;BME280;50896;46.714;17.322;2022-11-15T20:26:10;99997.50;;;7.77;100.00
64521;BME280;50896;46.714;17.322;2022-11-15T20:28:38;99998.31;;;7.78;100.00
64521;BME280;50896;46.714;17.322;2022-11-15T20:31:05;99994.16;;;7.75;100.00
64521;BME280;50896;46.714;17.322;2022-11-15T20:33:33;99998.63;;;7.75;100.00
64521;BME280;50896;46.714;17.322;2022-11-15T20:36:06;99989.69;;;7.76;100.00
64521;BME280;50896;46.714;17.322;2022-11-15T20:38:33;99983.88;;;7.72;100.00
64521;BME280;50896;46.714;17.322;2022-11-15T20:41:00;99986.75;;;7.79;100.00
64521;BME280;50896;46.714;17.322;2022-11-15T20:43:27;99984.09;;;7.79;100.00
64521;BME280;50896;46.714;17.322;2022-11-15T20:45:54;99977.44;;;7.75;100.00
64521;BME280;50896;46.714;17.322;2022-11-15T20:48:21;99979.25;;;7.74;100.00
64521;BME280;50896;46.714;17.322;2022-11-15T20:50:47;99971.16;;;7.76;100.00
64521;BME280;50896;46.714;17.322;2022-11-15T20:53:17;99971.84;;;7.78;100.00
64521;BME280;50896;46.714;17.322;2022-11-15T20:55:46;99962.06;;;7.78;100.00
64521;BME280;50896;46.714;17.322;2022-11-15T20:58:17;99962.06;;;7.78;100.00
64521;BME280;50896;46.714;17.322;2022-11-15T21:00:45;99953.16;;;7.79;100.00
64521;BME280;50896;46.714;17.322;2022-11-15T21:03:13;99962.28;;;7.85;100.00
64521;BME280;50896;46.714;17.322;2022-11-15T21:05:42;99953.94;;;7.98;100.00
64521;BME280;50896;46.714;17.322;2022-11-15T21:08:10;99947.34;;;8.02;100.00
64521;BME280;50896;46.714;17.322;2022-11-15T21:10:39;99942.25;;;8.09;100.00
64521;BME280;50896;46.714;17.322;2022-11-15T21:13:25;99937.22;;;7.97;100.00
64521;BME280;50896;46.714;17.322;2022-11-15T21:15:55;99930.09;;;7.98;100.00
64521;BME280;50896;46.714;17.322;2022-11-15T21:18:25;99934.47;;;8.07;100.00
64521;BME280;50896;46.714;17.322;2022-11-15T21:20:52;99932.34;;;8.11;100.00
64521;BME280;50896;46.714;17.322;2022-11-15T21:23:19;99936.31;;;8.15;100.00
64521;BME280;50896;46.714;17.322;2022-11-15T21:25:50;99935.16;;;8.17;100.00
64521;BME280;50896;46.714;17.322;2022-11-15T21:28:17;99926.88;;;8.12;100.00
64521;BME280;50896;46.714;17.322;2022-11-15T21:33:20;99927.91;;;8.19;100.00
64521;BME280;50896;46.714;17.322;2022-11-15T21:35:50;99921.28;;;8.15;100.00
64521;BME280;50896;46.714;17.322;2022-11-15T21:38:17;99918.63;;;8.15;100.00
64521;BME280;50896;46.714;17.322;2022-11-15T21:40:43;99911.44;;;8.08;100.00
64521;BME280;50896;46.714;17.322;2022-11-15T21:43:10;99906.38;;;8.14;100.00
64521;BME280;50896;46.714;17.322;2022-11-15T21:45:37;99903.50;;;8.08;100.00
64521;BME280;50896;46.714;17.322;2022-11-15T21:48:04;99902.84;;;8.06;100.00
64521;BME280;50896;46.714;17.322;2022-11-15T21:50:31;99895.72;;;8.06;100.00
64521;BME280;50896;46.714;17.322;2022-11-15T21:52:58;99900.38;;;8.04;100.00
64521;BME280;50896;46.714;17.322;2022-11-15T21:55:25;99898.75;;;8.11;100.00
64521;BME280;50896;46.714;17.322;2022-11-15T21:57:51;99891.28;;;8.07;100.00
64521;BME280;50896;46.714;17.322;2022-11-15T22:00:18;99892.16;;;8.15;100.00
64521;BME280;50896;46.714;17.322;2022-11-15T22:03:03;99889.16;;;8.18;100.00
64521;BME280;50896;46.714;17.322;2022-11-15T22:05:30;99880.03;;;8.13;100.00
64521;BME280;50896;46.714;17.322;2022-11-15T22:07:57;99874.22;;;8.09;100.00
64521;BME280;50896;46.714;17.322;2022-11-15T22:10:23;99872.91;;;8.13;100.00
64521;BME280;50896;46.714;17.322;2022-11-15T22:12:50;99883.34;;;8.15;100.00
64521;BME280;50896;46.714;17.322;2022-11-15T22:15:17;99880.75;;;8.23;100.00
64521;BME280;50896;46.714;17.322;2022-11-15T22:17:43;99875.06;;;8.10;100.00
64521;BME280;50896;46.714;17.322;2022-11-15T22:20:26;99870.94;;;8.07;100.00
64521;BME280;50896;46.714;17.322;2022-11-15T22:23:10;99866.97;;;8.11;100.00
64521;BME280;50896;46.714;17.322;2022-11-15T22:25:36;99863.00;;;8.15;100.00
64521;BME280;50896;46.714;17.322;2022-11-15T22:28:03;99862.69;;;8.18;100.00
64521;BME280;50896;46.714;17.322;2022-11-15T22:30:30;99856.38;;;8.11;100.00
64521;BME280;50896;46.714;17.322;2022-11-15T22:32:57;99854.88;;;8.09;100.00
64521;BME280;50896;46.714;17.322;2022-11-15T22:35:24;99855.81;;;7.99;100.00
64521;BME280;50896;46.714;17.322;2022-11-15T22:37:54;99845.41;;;7.98;100.00
64521;BME280;50896;46.714;17.322;2022-11-15T22:40:23;99850.41;;;8.01;100.00
64521;BME280;50896;46.714;17.322;2022-11-15T22:42:50;99838.47;;;7.97;100.00
64521;BME280;50896;46.714;17.322;2022-11-15T22:45:17;99838.31;;;7.98;100.00
64521;BME280;50896;46.714;17.322;2022-11-15T22:47:43;99836.53;;;8.15;100.00
64521;BME280;50896;46.714;17.322;2022-11-15T22:50:10;99838.50;;;8.13;100.00
64521;BME280;50896;46.714;17.322;2022-11-15T22:52:37;99834.19;;;8.04;100.00
64521;BME280;50896;46.714;17.322;2022-11-15T22:55:04;99836.47;;;7.99;100.00
64521;BME280;50896;46.714;17.322;2022-11-15T22:57:31;99823.31;;;8.15;100.00
64521;BME280;50896;46.714;17.322;2022-11-15T22:59:57;99816.28;;;7.98;100.00
64521;BME280;50896;46.714;17.322;2022-11-15T23:02:27;99818.13;;;8.06;100.00
64521;BME280;50896;46.714;17.322;2022-11-15T23:04:54;99821.41;;;7.99;100.00
64521;BME280;50896;46.714;17.322;2022-11-15T23:07:20;99809.81;;;7.92;100.00
64521;BME280;50896;46.714;17.322;2022-11-15T23:09:47;99809.69;;;8.02;100.00
64521;BME280;50896;46.714;17.322;2022-11-15T23:12:17;99808.69;;;8.03;100.00